sensor_id;sensor_type;location;lat;lon;timestamp;P1;durP1;ratioP1;P2;durP2;ratioP2
20393;SDS011;10356;50.544;9.642;2023-07-29T00:01:39;4.47;;;4.05;;
20393;SDS011;10356;50.544;9.642;2023-07-29T00:04:06;4.60;;;4.22;;
20393;SDS011;10356;50.544;9.642;2023-07-29T00:06:33;4.18;;;3.70;;
20393;SDS011;10356;50.544;9.642;2023-07-29T00:09:00;4.75;;;4.15;;
20393;SDS011;10356;50.544;9.642;2023-07-29T00:11:27;6.55;;;4.13;;
20393;SDS011;10356;50.544;9.642;2023-07-29T00:13:55;4.30;;;3.63;;
20393;SDS011;10356;50.544;9.642;2023-07-29T00:16:21;4.90;;;4.30;;
20393;SDS011;10356;50.544;9.642;2023-07-29T00:18:48;6.38;;;4.10;;
20393;SDS011;10356;50.544;9.642;2023-07-29T00:21:15;5.07;;;4.15;;
20393;SDS011;10356;50.544;9.642;2023-07-29T00:23:41;4.15;;;3.85;;
20393;SDS011;10356;50.544;9.642;2023-07-29T00:26:07;7.30;;;3.88;;
20393;SDS011;10356;50.544;9.642;2023-07-29T00:28:34;4.05;;;3.65;;
20393;SDS011;10356;50.544;9.642;2023-07-29T00:31:02;5.78;;;3.90;;
20393;SDS011;10356;50.544;9.642;2023-07-29T00:33:28;4.10;;;3.78;;
20393;SDS011;10356;50.544;9.642;2023-07-29T00:35:55;4.18;;;3.47;;
20393;SDS011;10356;50.544;9.642;2023-07-29T00:38:21;4.22;;;3.90;;
20393;SDS011;10356;50.544;9.642;2023-07-29T00:40:48;6.45;;;3.92;;
20393;SDS011;10356;50.544;9.642;2023-07-29T00:43:15;6.03;;;3.78;;
20393;SDS011;10356;50.544;9.642;2023-07-29T00:45:42;4.05;;;3.70;;
20393;SDS011;10356;50.544;9.642;2023-07-29T00:48:11;5.72;;;4.50;;
20393;SDS011;10356;50.544;9.642;2023-07-29T00:50:38;6.03;;;4.25;;
20393;SDS011;10356;50.544;9.642;2023-07-29T00:53:05;4.95;;;4.05;;
20393;SDS011;10356;50.544;9.642;2023-07-29T00:55:31;4.45;;;4.05;;
20393;SDS011;10356;50.544;9.642;2023-07-29T00:57:58;4.15;;;3.60;;
20393;SDS011;10356;50.544;9.642;2023-07-29T01:00:24;5.05;;;4.25;;
20393;SDS011;10356;50.544;9.642;2023-07-29T01:02:51;5.65;;;3.92;;
20393;SDS011;10356;50.544;9.642;2023-07-29T01:05:21;6.45;;;4.38;;
20393;SDS011;10356;50.544;9.642;2023-07-29T01:07:48;4.65;;;3.75;;
20393;SDS011;10356;50.544;9.642;2023-07-29T01:10:23;8.23;;;4.43;;
20393;SDS011;10356;50.544;9.642;2023-07-29T01:13:00;4.63;;;4.22;;
20393;SDS011;10356;50.544;9.642;2023-07-29T01:15:32;7.20;;;3.95;;
20393;SDS011;10356;50.544;9.642;2023-07-29T01:18:04;4.72;;;4.05;;
20393;SDS011;10356;50.544;9.642;2023-07-29T01:20:34;6.05;;;3.75;;
20393;SDS011;10356;50.544;9.642;2023-07-29T01:23:05;4.13;;;3.78;;
20393;SDS011;10356;50.544;9.642;2023-07-29T01:25:32;5.18;;;3.67;;
20393;SDS011;10356;50.544;9.642;2023-07-29T01:27:59;5.32;;;4.10;;
20393;SDS011;10356;50.544;9.642;2023-07-29T01:30:26;5.97;;;4.30;;
20393;SDS011;10356;50.544;9.642;2023-07-29T01:32:58;5.03;;;3.78;;
20393;SDS011;10356;50.544;9.642;2023-07-29T01:35:31;4.47;;;3.90;;
20393;SDS011;10356;50.544;9.642;2023-07-29T01:38:03;4.20;;;3.75;;
20393;SDS011;10356;50.544;9.642;2023-07-29T01:40:33;6.22;;;3.88;;
20393;SDS011;10356;50.544;9.642;2023-07-29T01:43:00;4.25;;;3.80;;
20393;SDS011;10356;50.544;9.642;2023-07-29T01:45:27;3.50;;;3.20;;
20393;SDS011;10356;50.544;9.642;2023-07-29T01:47:56;4.35;;;3.47;;
20393;SDS011;10356;50.544;9.642;2023-07-29T01:50:23;5.22;;;3.67;;
20393;SDS011;10356;50.544;9.642;2023-07-29T01:52:49;3.65;;;3.17;;
20393;SDS011;10356;50.544;9.642;2023-07-29T01:55:16;5.07;;;3.60;;
20393;SDS011;10356;50.544;9.642;2023-07-29T01:57:44;4.82;;;3.63;;
20393;SDS011;10356;50.544;9.642;2023-07-29T02:00:11;7.57;;;3.35;;
20393;SDS011;10356;50.544;9.642;2023-07-29T02:02:38;5.10;;;3.30;;
20393;SDS011;10356;50.544;9.642;2023-07-29T02:05:05;3.70;;;3.25;;
20393;SDS011;10356;50.544;9.642;2023-07-29T02:07:31;4.97;;;2.97;;
20393;SDS011;10356;50.544;9.642;2023-07-29T02:09:58;7.15;;;3.08;;
20393;SDS011;10356;50.544;9.642;2023-07-29T02:12:25;6.18;;;3.25;;
20393;SDS011;10356;50.544;9.642;2023-07-29T02:14:52;4.72;;;3.72;;
20393;SDS011;10356;50.544;9.642;2023-07-29T02:17:19;4.68;;;3.47;;
20393;SDS011;10356;50.544;9.642;2023-07-29T02:19:46;4.72;;;3.45;;
20393;SDS011;10356;50.544;9.642;2023-07-29T02:22:14;5.50;;;3.40;;
20393;SDS011;10356;50.544;9.642;2023-07-29T02:24:42;4.78;;;3.60;;
20393;SDS011;10356;50.544;9.642;2023-07-29T02:27:09;4.03;;;3.63;;
20393;SDS011;10356;50.544;9.642;2023-07-29T02:29:35;9.20;;;3.58;;
20393;SDS011;10356;50.544;9.642;2023-07-29T02:32:03;5.43;;;3.55;;
20393;SDS011;10356;50.544;9.642;2023-07-29T02:34:30;8.73;;;3.22;;
20393;SDS011;10356;50.544;9.642;2023-07-29T02:36:56;6.93;;;3.25;;
20393;SDS011;10356;50.544;9.642;2023-07-29T02:39:23;3.95;;;2.72;;
20393;SDS011;10356;50.544;9.642;2023-07-29T02:41:49;6.97;;;3.70;;
20393;SDS011;10356;50.544;9.642;2023-07-29T02:44:16;5.10;;;3.50;;
20393;SDS011;10356;50.544;9.642;2023-07-29T02:46:42;4.65;;;3.30;;
20393;SDS011;10356;50.544;9.642;2023-07-29T02:49:10;5.45;;;3.50;;
20393;SDS011;10356;50.544;9.642;2023-07-29T02:51:37;3.42;;;3.13;;
20393;SDS011;10356;50.544;9.642;2023-07-29T02:54:03;4.03;;;3.45;;
20393;SDS011;10356;50.544;9.642;2023-07-29T02:56:30;4.22;;;2.70;;
20393;SDS011;10356;50.544;9.642;2023-07-29T02:58:56;3.90;;;3.35;;
20393;SDS011;10356;50.544;9.642;2023-07-29T03:01:23;5.55;;;3.30;;
20393;SDS011;10356;50.544;9.642;2023-07-29T03:03:50;3.05;;;2.85;;
20393;SDS011;10356;50.544;9.642;2023-07-29T03:06:19;3.97;;;3.25;;
20393;SDS011;10356;50.544;9.642;2023-07-29T03:08:45;3.60;;;3.30;;
20393;SDS011;10356;50.544;9.642;2023-07-29T03:11:12;3.55;;;2.95;;
20393;SDS011;10356;50.544;9.642;2023-07-29T03:13:40;3.28;;;2.97;;
20393;SDS011;10356;50.544;9.642;2023-07-29T03:16:06;2.97;;;2.78;;
20393;SDS011;10356;50.544;9.642;2023-07-29T03:18:33;6.53;;;3.13;;
20393;SDS011;10356;50.544;9.642;2023-07-29T03:21:00;5.88;;;3.10;;
20393;SDS011;10356;50.544;9.642;2023-07-29T03:23:28;3.97;;;2.75;;
20393;SDS011;10356;50.544;9.642;2023-07-29T03:25:55;3.53;;;2.90;;
20393;SDS011;10356;50.544;9.642;2023-07-29T03:28:23;2.80;;;2.60;;
20393;SDS011;10356;50.544;9.642;2023-07-29T03:30:50;3.92;;;3.10;;
20393;SDS011;10356;50.544;9.642;2023-07-29T03:33:16;6.03;;;2.88;;
20393;SDS011;10356;50.544;9.642;2023-07-29T03:35:43;2.95;;;2.75;;
20393;SDS011;10356;50.544;9.642;2023-07-29T03:38:09;2.97;;;2.63;;
20393;SDS011;10356;50.544;9.642;2023-07-29T03:40:37;3.90;;;2.85;;
20393;SDS011;10356;50.544;9.642;2023-07-29T03:43:04;3.45;;;2.72;;
20393;SDS011;10356;50.544;9.642;2023-07-29T03:45:30;5.05;;;2.78;;
20393;SDS011;10356;50.544;9.642;2023-07-29T03:47:57;6.03;;;2.40;;
20393;SDS011;10356;50.544;9.642;2023-07-29T03:50:23;4.47;;;2.70;;
20393;SDS011;10356;50.544;9.642;2023-07-29T03:52:50;4.00;;;2.67;;
20393;SDS011;10356;50.544;9.642;2023-07-29T03:55:16;4.05;;;2.53;;
20393;SDS011;10356;50.544;9.642;2023-07-29T03:57:44;3.30;;;2.35;;
20393;SDS011;10356;50.544;9.642;2023-07-29T04:00:11;6.03;;;2.67;;
20393;SDS011;10356;50.544;9.642;2023-07-29T04:02:38;3.90;;;2.42;;
20393;SDS011;10356;50.544;9.642;2023-07-29T04:05:05;2.90;;;2.60;;
20393;SDS011;10356;50.544;9.642;2023-07-29T04:07:33;3.40;;;2.72;;
20393;SDS011;10356;50.544;9.642;2023-07-29T04:10:00;4.07;;;2.60;;
20393;SDS011;10356;50.544;9.642;2023-07-29T04:12:27;2.72;;;2.50;;
20393;SDS011;10356;50.544;9.642;2023-07-29T04:14:54;3.72;;;2.80;;
20393;SDS011;10356;50.544;9.642;2023-07-29T04:17:21;3.05;;;2.70;;
20393;SDS011;10356;50.544;9.642;2023-07-29T04:19:47;4.70;;;2.60;;
20393;SDS011;10356;50.544;9.642;2023-07-29T04:22:15;3.33;;;2.63;;
20393;SDS011;10356;50.544;9.642;2023-07-29T04:24:42;3.30;;;2.70;;
20393;SDS011;10356;50.544;9.642;2023-07-29T04:27:09;4.68;;;3.05;;
20393;SDS011;10356;50.544;9.642;2023-07-29T04:29:35;3.90;;;2.72;;
20393;SDS011;10356;50.544;9.642;2023-07-29T04:32:03;5.15;;;2.70;;
20393;SDS011;10356;50.544;9.642;2023-07-29T04:34:31;3.58;;;2.95;;
20393;SDS011;10356;50.544;9.642;2023-07-29T04:36:57;4.97;;;3.10;;
20393;SDS011;10356;50.544;9.642;2023-07-29T04:39:24;4.88;;;2.80;;
20393;SDS011;10356;50.544;9.642;2023-07-29T04:41:50;5.00;;;3.00;;
20393;SDS011;10356;50.544;9.642;2023-07-29T04:44:17;4.80;;;3.00;;
20393;SDS011;10356;50.544;9.642;2023-07-29T04:46:43;2.75;;;2.55;;
20393;SDS011;10356;50.544;9.642;2023-07-29T04:49:11;5.20;;;2.90;;
20393;SDS011;10356;50.544;9.642;2023-07-29T04:51:38;5.32;;;3.00;;
20393;SDS011;10356;50.544;9.642;2023-07-29T04:54:04;3.33;;;3.00;;
20393;SDS011;10356;50.544;9.642;2023-07-29T04:56:30;2.92;;;2.65;;
20393;SDS011;10356;50.544;9.642;2023-07-29T04:58:57;7.18;;;2.53;;
20393;SDS011;10356;50.544;9.642;2023-07-29T05:01:23;3.88;;;2.60;;
20393;SDS011;10356;50.544;9.642;2023-07-29T05:03:50;2.58;;;2.25;;
20393;SDS011;10356;50.544;9.642;2023-07-29T05:06:18;3.17;;;2.05;;
20393;SDS011;10356;50.544;9.642;2023-07-29T05:08:44;3.40;;;2.03;;
20393;SDS011;10356;50.544;9.642;2023-07-29T05:11:11;1.98;;;1.88;;
20393;SDS011;10356;50.544;9.642;2023-07-29T05:13:37;2.53;;;1.95;;
20393;SDS011;10356;50.544;9.642;2023-07-29T05:16:04;2.90;;;1.98;;
20393;SDS011;10356;50.544;9.642;2023-07-29T05:18:30;3.05;;;1.83;;
20393;SDS011;10356;50.544;9.642;2023-07-29T05:20:57;4.40;;;1.90;;
20393;SDS011;10356;50.544;9.642;2023-07-29T05:23:24;2.80;;;1.90;;
20393;SDS011;10356;50.544;9.642;2023-07-29T05:25:51;2.30;;;1.80;;
20393;SDS011;10356;50.544;9.642;2023-07-29T05:28:17;3.72;;;2.20;;
20393;SDS011;10356;50.544;9.642;2023-07-29T05:30:44;2.38;;;1.80;;
20393;SDS011;10356;50.544;9.642;2023-07-29T05:33:10;2.30;;;2.10;;
20393;SDS011;10356;50.544;9.642;2023-07-29T05:35:37;4.60;;;1.75;;
20393;SDS011;10356;50.544;9.642;2023-07-29T05:38:03;1.75;;;1.65;;
20393;SDS011;10356;50.544;9.642;2023-07-29T05:40:33;2.30;;;1.48;;
20393;SDS011;10356;50.544;9.642;2023-07-29T05:42:59;1.85;;;1.45;;
20393;SDS011;10356;50.544;9.642;2023-07-29T05:45:26;1.92;;;1.73;;
20393;SDS011;10356;50.544;9.642;2023-07-29T05:47:52;1.60;;;1.50;;
20393;SDS011;10356;50.544;9.642;2023-07-29T05:50:19;5.35;;;1.92;;
20393;SDS011;10356;50.544;9.642;2023-07-29T05:52:45;3.70;;;1.70;;
20393;SDS011;10356;50.544;9.642;2023-07-29T05:55:12;4.32;;;1.77;;
20393;SDS011;10356;50.544;9.642;2023-07-29T05:57:39;1.70;;;1.60;;
20393;SDS011;10356;50.544;9.642;2023-07-29T06:00:06;1.98;;;1.85;;
20393;SDS011;10356;50.544;9.642;2023-07-29T06:02:33;2.70;;;1.67;;
20393;SDS011;10356;50.544;9.642;2023-07-29T06:05:00;2.78;;;2.13;;
20393;SDS011;10356;50.544;9.642;2023-07-29T06:07:28;2.42;;;1.80;;
20393;SDS011;10356;50.544;9.642;2023-07-29T06:09:55;1.40;;;1.30;;
20393;SDS011;10356;50.544;9.642;2023-07-29T06:12:23;1.77;;;1.67;;
20393;SDS011;10356;50.544;9.642;2023-07-29T06:14:50;2.40;;;1.85;;
20393;SDS011;10356;50.544;9.642;2023-07-29T06:17:17;3.10;;;1.83;;
20393;SDS011;10356;50.544;9.642;2023-07-29T06:19:43;1.83;;;1.60;;
20393;SDS011;10356;50.544;9.642;2023-07-29T06:22:10;1.77;;;1.50;;
20393;SDS011;10356;50.544;9.642;2023-07-29T06:24:36;1.92;;;1.67;;
20393;SDS011;10356;50.544;9.642;2023-07-29T06:27:03;3.58;;;1.90;;
20393;SDS011;10356;50.544;9.642;2023-07-29T06:29:29;2.30;;;1.80;;
20393;SDS011;10356;50.544;9.642;2023-07-29T06:31:58;2.47;;;1.85;;
20393;SDS011;10356;50.544;9.642;2023-07-29T06:34:24;1.92;;;1.50;;
20393;SDS011;10356;50.544;9.642;2023-07-29T06:36:51;2.20;;;1.48;;
20393;SDS011;10356;50.544;9.642;2023-07-29T06:39:17;4.78;;;1.95;;
20393;SDS011;10356;50.544;9.642;2023-07-29T06:41:44;2.20;;;2.00;;
20393;SDS011;10356;50.544;9.642;2023-07-29T06:44:10;2.90;;;1.88;;
20393;SDS011;10356;50.544;9.642;2023-07-29T06:46:37;2.70;;;1.95;;
20393;SDS011;10356;50.544;9.642;2023-07-29T06:49:04;3.83;;;1.63;;
20393;SDS011;10356;50.544;9.642;2023-07-29T06:51:31;4.68;;;1.95;;
20393;SDS011;10356;50.544;9.642;2023-07-29T06:53:59;3.00;;;1.70;;
20393;SDS011;10356;50.544;9.642;2023-07-29T06:56:26;2.55;;;1.70;;
20393;SDS011;10356;50.544;9.642;2023-07-29T06:58:52;3.72;;;2.60;;
20393;SDS011;10356;50.544;9.642;2023-07-29T07:01:19;3.20;;;2.30;;
20393;SDS011;10356;50.544;9.642;2023-07-29T07:03:45;2.97;;;1.80;;
20393;SDS011;10356;50.544;9.642;2023-07-29T07:06:13;2.42;;;2.00;;
20393;SDS011;10356;50.544;9.642;2023-07-29T07:08:40;2.28;;;1.70;;
20393;SDS011;10356;50.544;9.642;2023-07-29T07:11:07;2.10;;;1.90;;
20393;SDS011;10356;50.544;9.642;2023-07-29T07:13:34;1.85;;;1.75;;
20393;SDS011;10356;50.544;9.642;2023-07-29T07:16:01;2.72;;;1.70;;
20393;SDS011;10356;50.544;9.642;2023-07-29T07:18:27;2.03;;;1.90;;
20393;SDS011;10356;50.544;9.642;2023-07-29T07:20:54;6.28;;;3.55;;
20393;SDS011;10356;50.544;9.642;2023-07-29T07:23:21;11.63;;;6.22;;
20393;SDS011;10356;50.544;9.642;2023-07-29T07:25:48;8.60;;;5.20;;
20393;SDS011;10356;50.544;9.642;2023-07-29T07:28:14;7.03;;;3.17;;
20393;SDS011;10356;50.544;9.642;2023-07-29T07:30:41;6.35;;;3.50;;
20393;SDS011;10356;50.544;9.642;2023-07-29T07:33:07;3.78;;;2.70;;
20393;SDS011;10356;50.544;9.642;2023-07-29T07:35:34;4.43;;;1.98;;
20393;SDS011;10356;50.544;9.642;2023-07-29T07:38:00;2.88;;;2.10;;
20393;SDS011;10356;50.544;9.642;2023-07-29T07:40:30;2.78;;;2.30;;
20393;SDS011;10356;50.544;9.642;2023-07-29T07:42:56;2.72;;;2.00;;
20393;SDS011;10356;50.544;9.642;2023-07-29T07:45:23;4.57;;;2.20;;
20393;SDS011;10356;50.544;9.642;2023-07-29T07:47:51;2.03;;;1.83;;
20393;SDS011;10356;50.544;9.642;2023-07-29T07:50:17;3.25;;;1.77;;
20393;SDS011;10356;50.544;9.642;2023-07-29T07:52:44;2.35;;;2.15;;
20393;SDS011;10356;50.544;9.642;2023-07-29T07:55:10;3.55;;;2.10;;
20393;SDS011;10356;50.544;9.642;2023-07-29T07:57:38;3.63;;;1.77;;
20393;SDS011;10356;50.544;9.642;2023-07-29T08:00:05;3.70;;;2.25;;
20393;SDS011;10356;50.544;9.642;2023-07-29T08:02:32;2.33;;;2.13;;
20393;SDS011;10356;50.544;9.642;2023-07-29T08:04:59;6.43;;;2.70;;
20393;SDS011;10356;50.544;9.642;2023-07-29T08:07:25;4.65;;;2.72;;
20393;SDS011;10356;50.544;9.642;2023-07-29T08:09:52;5.53;;;2.95;;
20393;SDS011;10356;50.544;9.642;2023-07-29T08:12:18;5.75;;;2.58;;
20393;SDS011;10356;50.544;9.642;2023-07-29T08:14:46;4.50;;;2.70;;
20393;SDS011;10356;50.544;9.642;2023-07-29T08:17:12;3.10;;;2.38;;
20393;SDS011;10356;50.544;9.642;2023-07-29T08:19:39;5.72;;;2.88;;
20393;SDS011;10356;50.544;9.642;2023-07-29T08:22:05;3.90;;;2.50;;
20393;SDS011;10356;50.544;9.642;2023-07-29T08:24:32;10.20;;;3.25;;
20393;SDS011;10356;50.544;9.642;2023-07-29T08:26:59;3.40;;;2.85;;
20393;SDS011;10356;50.544;9.642;2023-07-29T08:29:26;5.65;;;2.80;;
20393;SDS011;10356;50.544;9.642;2023-07-29T08:31:53;2.65;;;2.45;;
20393;SDS011;10356;50.544;9.642;2023-07-29T08:34:21;2.92;;;2.72;;
20393;SDS011;10356;50.544;9.642;2023-07-29T08:36:47;4.25;;;2.95;;
20393;SDS011;10356;50.544;9.642;2023-07-29T08:39:14;2.80;;;2.60;;
20393;SDS011;10356;50.544;9.642;2023-07-29T08:41:41;3.53;;;2.70;;
20393;SDS011;10356;50.544;9.642;2023-07-29T08:44:17;4.53;;;2.38;;
20393;SDS011;10356;50.544;9.642;2023-07-29T08:46:47;2.97;;;2.65;;
20393;SDS011;10356;50.544;9.642;2023-07-29T08:49:15;3.65;;;2.03;;
20393;SDS011;10356;50.544;9.642;2023-07-29T08:51:44;2.60;;;2.00;;
20393;SDS011;10356;50.544;9.642;2023-07-29T08:54:11;3.17;;;2.00;;
20393;SDS011;10356;50.544;9.642;2023-07-29T08:56:38;3.38;;;2.10;;
20393;SDS011;10356;50.544;9.642;2023-07-29T08:59:04;2.20;;;2.00;;
20393;SDS011;10356;50.544;9.642;2023-07-29T09:01:31;1.77;;;1.67;;
20393;SDS011;10356;50.544;9.642;2023-07-29T09:03:58;2.08;;;1.88;;
20393;SDS011;10356;50.544;9.642;2023-07-29T09:06:26;1.83;;;1.70;;
20393;SDS011;10356;50.544;9.642;2023-07-29T09:08:53;2.17;;;1.80;;
20393;SDS011;10356;50.544;9.642;2023-07-29T09:11:21;2.33;;;1.13;;
20393;SDS011;10356;50.544;9.642;2023-07-29T09:13:48;3.03;;;1.60;;
20393;SDS011;10356;50.544;9.642;2023-07-29T09:16:14;3.88;;;1.23;;
20393;SDS011;10356;50.544;9.642;2023-07-29T09:18:41;1.48;;;1.20;;
20393;SDS011;10356;50.544;9.642;2023-07-29T09:21:07;1.40;;;1.30;;
20393;SDS011;10356;50.544;9.642;2023-07-29T09:23:42;1.33;;;1.23;;
20393;SDS011;10356;50.544;9.642;2023-07-29T09:26:09;1.40;;;1.20;;
20393;SDS011;10356;50.544;9.642;2023-07-29T09:28:36;2.03;;;1.23;;
20393;SDS011;10356;50.544;9.642;2023-07-29T09:31:04;1.70;;;1.42;;
20393;SDS011;10356;50.544;9.642;2023-07-29T09:33:32;1.77;;;1.23;;
20393;SDS011;10356;50.544;9.642;2023-07-29T09:36:01;2.83;;;1.88;;
20393;SDS011;10356;50.544;9.642;2023-07-29T09:38:28;1.40;;;1.20;;
20393;SDS011;10356;50.544;9.642;2023-07-29T09:40:56;2.65;;;1.30;;
20393;SDS011;10356;50.544;9.642;2023-07-29T09:43:28;1.55;;;1.35;;
20393;SDS011;10356;50.544;9.642;2023-07-29T09:45:59;1.40;;;1.30;;
20393;SDS011;10356;50.544;9.642;2023-07-29T09:48:26;1.65;;;1.55;;
20393;SDS011;10356;50.544;9.642;2023-07-29T09:50:53;2.05;;;1.27;;
20393;SDS011;10356;50.544;9.642;2023-07-29T09:53:20;4.47;;;1.58;;
20393;SDS011;10356;50.544;9.642;2023-07-29T09:55:47;2.00;;;1.60;;
20393;SDS011;10356;50.544;9.642;2023-07-29T09:58:19;3.33;;;1.52;;
20393;SDS011;10356;50.544;9.642;2023-07-29T10:00:51;2.63;;;1.30;;
20393;SDS011;10356;50.544;9.642;2023-07-29T10:03:18;1.85;;;1.70;;
20393;SDS011;10356;50.544;9.642;2023-07-29T10:05:47;3.35;;;1.67;;
20393;SDS011;10356;50.544;9.642;2023-07-29T10:08:14;2.05;;;1.70;;
20393;SDS011;10356;50.544;9.642;2023-07-29T10:10:41;1.60;;;1.50;;
20393;SDS011;10356;50.544;9.642;2023-07-29T10:13:08;1.60;;;1.50;;
20393;SDS011;10356;50.544;9.642;2023-07-29T10:15:37;1.42;;;1.33;;
20393;SDS011;10356;50.544;9.642;2023-07-29T10:18:03;2.22;;;1.40;;
20393;SDS011;10356;50.544;9.642;2023-07-29T10:20:30;1.42;;;1.33;;
20393;SDS011;10356;50.544;9.642;2023-07-29T10:22:59;1.80;;;1.70;;
20393;SDS011;10356;50.544;9.642;2023-07-29T10:25:30;3.28;;;1.90;;
20393;SDS011;10356;50.544;9.642;2023-07-29T10:28:04;1.70;;;1.50;;
20393;SDS011;10356;50.544;9.642;2023-07-29T10:30:32;1.45;;;1.35;;
20393;SDS011;10356;50.544;9.642;2023-07-29T10:33:01;1.70;;;1.45;;
20393;SDS011;10356;50.544;9.642;2023-07-29T10:35:29;2.33;;;1.45;;
20393;SDS011;10356;50.544;9.642;2023-07-29T10:37:56;3.08;;;1.83;;
20393;SDS011;10356;50.544;9.642;2023-07-29T10:40:23;2.00;;;1.80;;
20393;SDS011;10356;50.544;9.642;2023-07-29T10:42:59;3.10;;;1.58;;
20393;SDS011;10356;50.544;9.642;2023-07-29T10:45:28;3.10;;;1.98;;
20393;SDS011;10356;50.544;9.642;2023-07-29T10:48:06;2.17;;;1.80;;
20393;SDS011;10356;50.544;9.642;2023-07-29T10:50:36;3.30;;;1.85;;
20393;SDS011;10356;50.544;9.642;2023-07-29T10:53:02;1.63;;;1.52;;
20393;SDS011;10356;50.544;9.642;2023-07-29T10:55:30;1.73;;;1.63;;
20393;SDS011;10356;50.544;9.642;2023-07-29T10:58:05;3.05;;;1.75;;
20393;SDS011;10356;50.544;9.642;2023-07-29T11:00:33;1.83;;;1.60;;
20393;SDS011;10356;50.544;9.642;2023-07-29T11:03:00;2.45;;;1.52;;
20393;SDS011;10356;50.544;9.642;2023-07-29T11:05:42;2.10;;;2.00;;
20393;SDS011;10356;50.544;9.642;2023-07-29T11:08:16;1.90;;;1.70;;
20393;SDS011;10356;50.544;9.642;2023-07-29T11:10:44;2.03;;;1.92;;
20393;SDS011;10356;50.544;9.642;2023-07-29T11:13:26;1.75;;;1.65;;
20393;SDS011;10356;50.544;9.642;2023-07-29T11:15:54;1.80;;;1.70;;
20393;SDS011;10356;50.544;9.642;2023-07-29T11:18:23;14.30;;;12.60;;
20393;SDS011;10356;50.544;9.642;2023-07-29T11:20:55;5.05;;;3.72;;
20393;SDS011;10356;50.544;9.642;2023-07-29T11:23:27;3.38;;;2.85;;
20393;SDS011;10356;50.544;9.642;2023-07-29T11:25:54;1.70;;;1.60;;
20393;SDS011;10356;50.544;9.642;2023-07-29T11:28:21;2.53;;;2.00;;
20393;SDS011;10356;50.544;9.642;2023-07-29T11:30:49;2.53;;;2.33;;
20393;SDS011;10356;50.544;9.642;2023-07-29T11:33:16;1.52;;;1.42;;
20393;SDS011;10356;50.544;9.642;2023-07-29T11:35:44;1.50;;;1.40;;
20393;SDS011;10356;50.544;9.642;2023-07-29T11:38:15;1.95;;;1.55;;
20393;SDS011;10356;50.544;9.642;2023-07-29T11:40:43;1.15;;;1.10;;
20393;SDS011;10356;50.544;9.642;2023-07-29T11:43:09;2.63;;;2.35;;
20393;SDS011;10356;50.544;9.642;2023-07-29T11:45:43;2.58;;;1.67;;
20393;SDS011;10356;50.544;9.642;2023-07-29T11:48:11;1.65;;;1.20;;
20393;SDS011;10356;50.544;9.642;2023-07-29T11:50:37;1.40;;;1.25;;
20393;SDS011;10356;50.544;9.642;2023-07-29T11:53:04;3.40;;;1.40;;
20393;SDS011;10356;50.544;9.642;2023-07-29T11:55:32;2.42;;;1.38;;
20393;SDS011;10356;50.544;9.642;2023-07-29T11:57:59;2.05;;;1.30;;
20393;SDS011;10356;50.544;9.642;2023-07-29T12:00:27;1.73;;;1.40;;
20393;SDS011;10356;50.544;9.642;2023-07-29T12:02:54;1.60;;;1.48;;
20393;SDS011;10356;50.544;9.642;2023-07-29T12:05:22;2.38;;;1.60;;
20393;SDS011;10356;50.544;9.642;2023-07-29T12:07:49;1.45;;;1.27;;
20393;SDS011;10356;50.544;9.642;2023-07-29T12:10:16;4.32;;;1.98;;
20393;SDS011;10356;50.544;9.642;2023-07-29T12:12:46;1.60;;;1.50;;
20393;SDS011;10356;50.544;9.642;2023-07-29T12:15:12;2.58;;;1.60;;
20393;SDS011;10356;50.544;9.642;2023-07-29T12:17:39;2.10;;;1.63;;
20393;SDS011;10356;50.544;9.642;2023-07-29T12:20:08;2.33;;;1.60;;
20393;SDS011;10356;50.544;9.642;2023-07-29T12:22:35;1.55;;;1.35;;
20393;SDS011;10356;50.544;9.642;2023-07-29T12:25:02;2.35;;;1.50;;
20393;SDS011;10356;50.544;9.642;2023-07-29T12:27:29;2.75;;;1.60;;
20393;SDS011;10356;50.544;9.642;2023-07-29T12:29:57;1.50;;;1.30;;
20393;SDS011;10356;50.544;9.642;2023-07-29T12:32:28;2.72;;;0.60;;
20393;SDS011;10356;50.544;9.642;2023-07-29T12:34:55;1.23;;;0.45;;
20393;SDS011;10356;50.544;9.642;2023-07-29T12:37:30;1.73;;;0.68;;
20393;SDS011;10356;50.544;9.642;2023-07-29T12:39:57;2.83;;;1.85;;
20393;SDS011;10356;50.544;9.642;2023-07-29T12:42:23;11.63;;;1.88;;
20393;SDS011;10356;50.544;9.642;2023-07-29T12:44:50;8.15;;;1.83;;
20393;SDS011;10356;50.544;9.642;2023-07-29T12:47:18;16.17;;;3.17;;
20393;SDS011;10356;50.544;9.642;2023-07-29T12:49:44;3.83;;;1.17;;
20393;SDS011;10356;50.544;9.642;2023-07-29T12:52:11;6.32;;;1.65;;
20393;SDS011;10356;50.544;9.642;2023-07-29T12:54:37;5.60;;;1.10;;
20393;SDS011;10356;50.544;9.642;2023-07-29T12:57:05;5.07;;;1.52;;
20393;SDS011;10356;50.544;9.642;2023-07-29T12:59:32;6.82;;;1.30;;
20393;SDS011;10356;50.544;9.642;2023-07-29T13:01:58;8.45;;;1.30;;
20393;SDS011;10356;50.544;9.642;2023-07-29T13:04:26;2.83;;;0.90;;
20393;SDS011;10356;50.544;9.642;2023-07-29T13:06:53;2.78;;;0.90;;
20393;SDS011;10356;50.544;9.642;2023-07-29T13:09:19;2.67;;;0.90;;
20393;SDS011;10356;50.544;9.642;2023-07-29T13:11:46;1.48;;;0.70;;
20393;SDS011;10356;50.544;9.642;2023-07-29T13:14:12;3.35;;;0.77;;
20393;SDS011;10356;50.544;9.642;2023-07-29T13:16:39;4.55;;;1.45;;
20393;SDS011;10356;50.544;9.642;2023-07-29T13:19:05;5.32;;;1.10;;
20393;SDS011;10356;50.544;9.642;2023-07-29T13:21:33;3.17;;;1.00;;
20393;SDS011;10356;50.544;9.642;2023-07-29T13:24:00;3.25;;;1.00;;
20393;SDS011;10356;50.544;9.642;2023-07-29T13:26:26;4.13;;;1.00;;
20393;SDS011;10356;50.544;9.642;2023-07-29T13:28:53;3.15;;;1.10;;
20393;SDS011;10356;50.544;9.642;2023-07-29T13:31:20;3.67;;;0.98;;
20393;SDS011;10356;50.544;9.642;2023-07-29T13:33:47;2.72;;;1.10;;
20393;SDS011;10356;50.544;9.642;2023-07-29T13:36:13;3.72;;;1.58;;
20393;SDS011;10356;50.544;9.642;2023-07-29T13:38:41;4.50;;;1.50;;
20393;SDS011;10356;50.544;9.642;2023-07-29T13:41:07;2.47;;;2.10;;
20393;SDS011;10356;50.544;9.642;2023-07-29T13:43:34;5.30;;;2.40;;
20393;SDS011;10356;50.544;9.642;2023-07-29T13:46:00;6.55;;;1.70;;
20393;SDS011;10356;50.544;9.642;2023-07-29T13:48:27;4.20;;;1.73;;
20393;SDS011;10356;50.544;9.642;2023-07-29T13:50:53;13.95;;;8.02;;
20393;SDS011;10356;50.544;9.642;2023-07-29T13:53:20;5.30;;;3.05;;
20393;SDS011;10356;50.544;9.642;2023-07-29T13:55:48;2.83;;;0.80;;
20393;SDS011;10356;50.544;9.642;2023-07-29T13:58:14;2.65;;;0.90;;
20393;SDS011;10356;50.544;9.642;2023-07-29T14:00:41;5.43;;;1.00;;
20393;SDS011;10356;50.544;9.642;2023-07-29T14:03:07;2.72;;;0.90;;
20393;SDS011;10356;50.544;9.642;2023-07-29T14:05:33;3.60;;;1.00;;
20393;SDS011;10356;50.544;9.642;2023-07-29T14:08:00;1.42;;;0.70;;
20393;SDS011;10356;50.544;9.642;2023-07-29T14:10:26;0.95;;;0.60;;
20393;SDS011;10356;50.544;9.642;2023-07-29T14:12:54;1.77;;;0.93;;
20393;SDS011;10356;50.544;9.642;2023-07-29T14:15:21;5.25;;;1.20;;
20393;SDS011;10356;50.544;9.642;2023-07-29T14:17:47;3.47;;;1.30;;
20393;SDS011;10356;50.544;9.642;2023-07-29T14:20:14;1.55;;;0.88;;
20393;SDS011;10356;50.544;9.642;2023-07-29T14:22:40;3.53;;;1.65;;
20393;SDS011;10356;50.544;9.642;2023-07-29T14:25:07;2.45;;;1.20;;
20393;SDS011;10356;50.544;9.642;2023-07-29T14:27:34;2.55;;;1.25;;
20393;SDS011;10356;50.544;9.642;2023-07-29T14:30:02;2.85;;;1.00;;
20393;SDS011;10356;50.544;9.642;2023-07-29T14:32:28;2.35;;;0.80;;
20393;SDS011;10356;50.544;9.642;2023-07-29T14:34:55;3.42;;;0.90;;
20393;SDS011;10356;50.544;9.642;2023-07-29T14:37:22;3.60;;;0.90;;
20393;SDS011;10356;50.544;9.642;2023-07-29T14:39:48;1.33;;;0.80;;
20393;SDS011;10356;50.544;9.642;2023-07-29T14:42:15;2.63;;;1.00;;
20393;SDS011;10356;50.544;9.642;2023-07-29T14:44:41;3.15;;;1.13;;
20393;SDS011;10356;50.544;9.642;2023-07-29T14:47:09;2.40;;;1.30;;
20393;SDS011;10356;50.544;9.642;2023-07-29T14:49:35;3.00;;;1.10;;